Terminal Aerodrome Forecast
Issued by NWS

Home | Current Version | Previous Version | Text Only | Print | Product List | Glossary On
Versions: 1 2 3 4 5 6 7 8 9 10 11 12 13 14 15 16 17 18 19 20 21 22 23 24 25 26 27 28 29 30 31 32 33 34 35 36 37
000
FTUS43 KLOT 062205 AAC
TAFORD
TAF AMD
KORD 062205Z 0622/0724 18012KT P6SM SCT060 BKN150
     FM070000 20012G23KT P6SM VCSH BKN040 OVC100
      TEMPO 0702/0704 3SM TSRA BKN025CB OVC035
     FM070600 23011KT 5SM BR VCSH SCT008 BKN015 OVC035
     FM071200 35011KT P6SM BKN015 OVC035
     FM071600 02012KT P6SM BKN035=

USA.gov is the U.S. government's official web portal to all federal, state and local government web resources and services.